tititudorancea.com
Station Historical Data
Daily Summary for February 2, 2019 Units:  Metric    English   Both
« Previous Day
Next Day »
Daily Weekly Monthly Yearly Custom
  High: Low: Average:
Temperature: -17.8 °C 8.9 °C 21.8 °C
Dew Point: -17.8 °C 4.2 °C 8.3 °C
Humidity: Humidity % 17 % 52 %
Wind Speed: 0 km/h 0 km/h 10 km/h
Wind Gust: 0 km/h - -
Wind:- - SW
Pressure: 0 hPa 1007.7 hPa -
Precipitation: 0 mm    
Historical Graphs
 
 
Ararat weather Find more about Weather in Ararat, AU


 



 


Tabular Data for February 2, 2019
Time Temperature Dew Point Pressure Wind Wind Speed Wind Gust Humidity Rainfall Rate (Hourly)
-17.8 °C -17.8 °C 0 hPa Calm     Humidity % 0 mm
00:04 13.4 °C 9.3 °C 1016.1 hPa South 13 km/h 9.7 km/h 76 % 0 mm
00:09 13.4 °C 9.2 °C 1016.1 hPa South 14.8 km/h 9.5 km/h 76 % 0 mm
00:14 13.4 °C 9.4 °C 1016.1 hPa South 18.5 km/h 9.2 km/h 77 % 0 mm
00:19 13.3 °C 9.4 °C 1016.1 hPa South 11.3 km/h 8.2 km/h 77 % 0 mm
00:24 13.3 °C 9.5 °C 1015.8 hPa South 13 km/h 8.7 km/h 78 % 0 mm
00:29 13.2 °C 9.4 °C 1015.8 hPa South 11.3 km/h 9 km/h 78 % 0 mm
00:34 13.2 °C 9.6 °C 1015.8 hPa South 14.8 km/h 9.8 km/h 79 % 0 mm
00:39 13.1 °C 9.6 °C 1015.8 hPa South 13 km/h 11.7 km/h 79 % 0 mm
00:44 13 °C 9.4 °C 1015.8 hPa South 14.8 km/h 9.5 km/h 79 % 0 mm
00:49 12.9 °C 9.6 °C 1015.8 hPa South 16.7 km/h 9 km/h 80 % 0 mm
00:54 12.9 °C 9.5 °C 1015.8 hPa South 7.4 km/h 3.1 km/h 80 % 0 mm
00:59 12.8 °C 9.6 °C 1015.8 hPa South 13 km/h 9.5 km/h 81 % 0 mm
01:04 12.8 °C 9.6 °C 1015.8 hPa South 6.4 km/h 6.8 km/h 81 % 0 mm
01:09 12.7 °C 9.6 °C 1015.5 hPa South 13 km/h 4.5 km/h 81 % 0 mm
01:14 12.7 °C 9.7 °C 1015.5 hPa South 9.3 km/h 7.2 km/h 82 % 0 mm
01:19 12.7 °C 9.7 °C 1015.5 hPa South 13 km/h 8.4 km/h 82 % 0 mm
01:24 12.6 °C 9.6 °C 1015.5 hPa South 9.3 km/h 5.8 km/h 82 % 0 mm
01:29 12.6 °C 9.8 °C 1015.1 hPa South 9.3 km/h 8.5 km/h 83 % 0 mm
01:34 12.6 °C 9.8 °C 1015.1 hPa South 9.3 km/h 7.2 km/h 83 % 0 mm
01:39 12.6 °C 9.7 °C 1015.1 hPa South 14.8 km/h 8.2 km/h 83 % 0 mm
01:44 12.6 °C 9.9 °C 1015.1 hPa South 13 km/h 8.5 km/h 84 % 0 mm
01:49 12.6 °C 9.9 °C 1015.1 hPa South 13 km/h 6.4 km/h 84 % 0 mm
01:54 12.5 °C 9.9 °C 1015.1 hPa South 9.3 km/h 7.9 km/h 84 % 0 mm
01:59 12.5 °C 9.9 °C 1015.1 hPa South 7.4 km/h 5.6 km/h 84 % 0 mm
02:04 12.6 °C 10.1 °C 1015.1 hPa South 7.4 km/h 5.5 km/h 85 % 0 mm
02:09 12.6 °C 10.1 °C 1015.1 hPa South 13 km/h 10.3 km/h 85 % 0 mm
02:14 12.6 °C 10.2 °C 1014.8 hPa South 9.3 km/h 7.4 km/h 85 % 0 mm
02:19 12.6 °C 10.2 °C 1014.8 hPa South 9.3 km/h 8.2 km/h 85 % 0 mm
02:24 12.6 °C 10.1 °C 1014.8 hPa South 9.3 km/h 6.9 km/h 85 % 0 mm
02:29 12.4 °C 9.9 °C 1014.8 hPa South 9.3 km/h 6.4 km/h 85 % 0 mm
02:34 12.2 °C 9.7 °C 1014.8 hPa South 6.4 km/h 5.5 km/h 85 % 0 mm
02:39 11.9 °C 9.7 °C 1014.4 hPa South 13 km/h 10.5 km/h 86 % 0 mm
02:44 11.8 °C 9.5 °C 1014.4 hPa South 14.8 km/h 10.5 km/h 86 % 0 mm
02:49 11.7 °C 9.4 °C 1014.4 hPa SSW 13 km/h 8.5 km/h 86 % 0 mm
02:54 11.6 °C 9.5 °C 1014.4 hPa SSW 13 km/h 8.4 km/h 87 % 0 mm
02:59 11.6 °C 9.4 °C 1014.4 hPa South 8 km/h 4.3 km/h 87 % 0 mm
03:04 11.5 °C 9.4 °C 1014.4 hPa SSW 9.3 km/h 4.7 km/h 87 % 0 mm
03:09 11.4 °C 9.3 °C 1014.4 hPa SSW 5.6 km/h 5.8 km/h 87 % 0 mm
03:14 11.5 °C 9.6 °C 1014.1 hPa SSW 13 km/h 9.3 km/h 88 % 0 mm
03:19 11.5 °C 9.6 °C 1014.1 hPa SSW 5.6 km/h 3.5 km/h 88 % 0 mm
03:24 11.4 °C 9.5 °C 1014.4 hPa SSW 6.4 km/h 5.3 km/h 88 % 0 mm
03:29 11.4 °C 9.4 °C 1014.1 hPa SSW 11.3 km/h 8.5 km/h 88 % 0 mm
03:34 11.3 °C 9.4 °C 1014.1 hPa SSW 8 km/h 7.2 km/h 88 % 0 mm
03:39 11.3 °C 9.6 °C 1014.1 hPa SSW 7.4 km/h 5.6 km/h 89 % 0 mm
03:44 11.3 °C 9.6 °C 1013.8 hPa SSW 9.3 km/h 5.8 km/h 89 % 0 mm
03:49 11.3 °C 9.6 °C 1014.1 hPa SSW 11.3 km/h 7.7 km/h 89 % 0 mm
03:54 11.4 °C 9.7 °C 1014.1 hPa SSW 7.4 km/h 5.1 km/h 89 % 0 mm
03:59 11.3 °C 9.6 °C 1014.1 hPa SSW 7.4 km/h 6 km/h 89 % 0 mm
04:04 11.3 °C 9.6 °C 1014.1 hPa SSW 9.3 km/h 4.5 km/h 89 % 0 mm
04:09 11.3 °C 9.6 °C 1013.8 hPa SSW 11.1 km/h 8 km/h 89 % 0 mm
04:14 11.2 °C 9.4 °C 1013.8 hPa SSW 9.7 km/h 6.8 km/h 89 % 0 mm
04:19 11.1 °C 9.4 °C 1013.8 hPa SSW 9.3 km/h 6 km/h 89 % 0 mm
04:24 11.1 °C 9.5 °C 1013.8 hPa SSW 9.3 km/h 5.8 km/h 90 % 0 mm
04:29 11.1 °C 9.5 °C 1013.8 hPa SSW 7.4 km/h 4.3 km/h 90 % 0 mm
04:34 11.1 °C 9.5 °C 1013.4 hPa SSW 7.4 km/h 5.6 km/h 90 % 0 mm
04:39 11.1 °C 9.6 °C 1013.4 hPa SSW 5.6 km/h 4.8 km/h 90 % 0 mm
04:44 11.1 °C 9.6 °C 1013.4 hPa SSW 7.4 km/h 3.9 km/h 90 % 0 mm
04:49 11.1 °C 9.5 °C 1013.4 hPa SSW 5.6 km/h 4.3 km/h 90 % 0 mm
04:54 10.9 °C 9.4 °C 1013.4 hPa SSW 5.6 km/h 4.3 km/h 90 % 0 mm
04:59 10.8 °C 9.3 °C 1013.4 hPa SSW 5.6 km/h 3.1 km/h 90 % 0 mm
05:04 10.8 °C 9.2 °C 1013.4 hPa SSW 3.7 km/h 3.2 km/h 90 % 0 mm
05:09 10.7 °C 9.2 °C 1013.4 hPa SSW 7.4 km/h 4.8 km/h 90 % 0 mm
05:14 10.7 °C 9.3 °C 1013.4 hPa SSW 6.4 km/h 6.1 km/h 91 % 0 mm
05:19 10.7 °C 9.3 °C 1013.4 hPa SSW 7.4 km/h 4.3 km/h 91 % 0 mm
05:24 10.6 °C 9.2 °C 1013.4 hPa SSW 5.6 km/h 4.2 km/h 91 % 0 mm
05:29 10.6 °C 9.2 °C 1013.4 hPa SSW 6.4 km/h 4 km/h 91 % 0 mm
05:34 10.6 °C 9.2 °C 1013.4 hPa SSW 5.6 km/h 4.2 km/h 91 % 0 mm
05:39 10.5 °C 9.1 °C 1013.4 hPa SSW 3.7 km/h 1.4 km/h 91 % 0 mm
05:44 10.5 °C 9.1 °C 1013.4 hPa SSW 5.6 km/h 3.1 km/h 91 % 0 mm
05:49 10.4 °C 9.1 °C 1013.4 hPa SSW 5.6 km/h 4.5 km/h 91 % 0 mm
05:54 10.4 °C 9 °C 1013.4 hPa SSW 6.4 km/h 4 km/h 91 % 0 mm
05:59 10.3 °C 8.9 °C 1013.4 hPa SSW 5.6 km/h 4.3 km/h 91 % 0 mm
06:04 10.3 °C 8.9 °C 1013.4 hPa SSW 5.6 km/h 4.3 km/h 91 % 0 mm
06:09 10.3 °C 8.9 °C 1013.4 hPa SSW 1.9 km/h   91 % 0 mm
06:14 10.3 °C 9.1 °C 1013.4 hPa Calm     92 % 0 mm
06:19 10.1 °C 8.7 °C 1013.4 hPa Calm     91 % 0 mm
06:24 10 °C 8.6 °C 1013.4 hPa Calm     91 % 0 mm
06:29 9.9 °C 8.5 °C 1013.8 hPa Calm     91 % 0 mm
06:34 9.8 °C 8.4 °C 1013.4 hPa Calm     91 % 0 mm
06:39 9.6 °C 8.2 °C 1013.8 hPa Calm     91 % 0 mm
06:44 9.4 °C 8.1 °C 1013.4 hPa Calm     91 % 0 mm
06:49 9.3 °C 7.9 °C 1013.4 hPa Calm     91 % 0 mm
06:54 9.2 °C 7.8 °C 1013.4 hPa Calm     91 % 0 mm
06:59 9 °C 7.6 °C 1013.4 hPa Calm     91 % 0 mm
07:04 9 °C 7.8 °C 1013.8 hPa SSW 3.7 km/h 3.2 km/h 92 % 0 mm
07:09 9.1 °C 7.8 °C 1013.8 hPa SSW 5.6 km/h 2.6 km/h 92 % 0 mm
07:14 9 °C 7.8 °C 1013.8 hPa SSW 3.7 km/h 1.1 km/h 92 % 0 mm
07:19 8.9 °C 7.7 °C 1013.8 hPa Calm     92 % 0 mm
07:24 8.9 °C 7.7 °C 1013.8 hPa Calm     92 % 0 mm
07:29 9 °C 7.8 °C 1013.4 hPa Calm     92 % 0 mm
07:34 9.1 °C 7.8 °C 1013.4 hPa Calm     92 % 0 mm
07:39 9.2 °C 8.1 °C 1013.8 hPa Calm     93 % 0 mm
07:44 9.4 °C 8.3 °C 1013.8 hPa Calm     93 % 0 mm
07:49 9.6 °C 8.5 °C 1013.8 hPa Calm     93 % 0 mm
07:54 9.8 °C 8.7 °C 1013.8 hPa Calm     93 % 0 mm
07:59 9.9 °C 8.8 °C 1013.8 hPa Calm     93 % 0 mm
08:04 10.2 °C 9.3 °C 1013.8 hPa Calm     94 % 0 mm
08:09 10.7 °C 9.7 °C 1013.8 hPa Calm     94 % 0 mm
08:14 11.2 °C 10.2 °C 1013.8 hPa Calm     94 % 0 mm
08:19 11.6 °C 10.5 °C 1013.8 hPa Calm     93 % 0 mm
08:24 11.8 °C 10.7 °C 1013.8 hPa Calm     93 % 0 mm
08:29 12.2 °C 11.1 °C 1013.4 hPa Calm     93 % 0 mm
08:34 12.6 °C 11.1 °C 1013.8 hPa Calm     91 % 0 mm
08:39 12.8 °C 11.4 °C 1013.4 hPa Calm     91 % 0 mm
08:44 13.1 °C 11.5 °C 1013.8 hPa Calm     90 % 0 mm
08:49 13.6 °C 11.8 °C 1013.8 hPa Calm     89 % 0 mm
08:54 14.2 °C 12.3 °C 1013.4 hPa Calm     88 % 0 mm
08:59 14.8 °C 11.9 °C 1013.8 hPa Calm     83 % 0 mm
09:04 15.6 °C 12.2 °C 1013.8 hPa Calm     80 % 0 mm
09:09 16.3 °C 12.1 °C 1013.8 hPa Calm     76 % 0 mm
09:14 16.9 °C 11.7 °C 1013.8 hPa SSW 5.6 km/h   71 % 0 mm
09:19 17.6 °C 11.6 °C 1013.8 hPa SSW 4.8 km/h 3.7 km/h 68 % 0 mm
09:24 18.1 °C 11.7 °C 1013.8 hPa SSW 5.6 km/h 3.7 km/h 66 % 0 mm
09:29 18.7 °C 11.5 °C 1013.4 hPa SSW 7.4 km/h 4 km/h 63 % 0 mm
09:34 19.3 °C 11.3 °C 1013.4 hPa SSW 5.6 km/h 5 km/h 60 % 0 mm
09:39 20 °C 11.2 °C 1013.4 hPa SSW 7.4 km/h 5.5 km/h 57 % 0 mm
09:44 20.8 °C 11.2 °C 1013.4 hPa SSW 9.3 km/h 3.2 km/h 54 % 0 mm
09:49 21.7 °C 11.4 °C 1013.4 hPa SSW 5.6 km/h 3.1 km/h 52 % 0 mm
09:54 22.2 °C 11.3 °C 1013.4 hPa SSW 5.6 km/h 1.1 km/h 50 % 0 mm
09:59 23.1 °C 10.8 °C 1013.4 hPa NNE 14.5 km/h 11.7 km/h 46 % 0 mm
10:04 23.4 °C 10.5 °C 1013.4 hPa NNE 14.8 km/h 9.7 km/h 44 % 0 mm
10:09 23.5 °C 10.6 °C 1013.4 hPa NNE 11.1 km/h 6.1 km/h 44 % 0 mm
10:14 23.8 °C 10.2 °C 1013.4 hPa NNE 7.4 km/h 4.5 km/h 42 % 0 mm
10:19 24 °C 9.9 °C 1013.1 hPa NNE 13 km/h 9.7 km/h 41 % 0 mm
10:24 24.2 °C 10.4 °C 1013.1 hPa NNE 9.3 km/h 5.1 km/h 42 % 0 mm
10:29 24.7 °C 10.2 °C 1013.1 hPa NNE 9.7 km/h 9.7 km/h 40 % 0 mm
10:34 24.8 °C 10.3 °C 1013.1 hPa NNE 7.4 km/h 3.9 km/h 40 % 0 mm
10:39 25 °C 9.7 °C 1013.1 hPa NNE 9.3 km/h 8.7 km/h 38 % 0 mm
10:44 25.4 °C 9.6 °C 1013.1 hPa NNE 11.3 km/h 9.2 km/h 37 % 0 mm
10:49 25.5 °C 9.7 °C 1013.1 hPa NNE 14.5 km/h 6.6 km/h 37 % 0 mm
10:54 25.5 °C 10.1 °C 1012.8 hPa NNE 7.4 km/h 6.3 km/h 38 % 0 mm
10:59 26 °C 10.6 °C 1013.1 hPa NNE 9.7 km/h 4.8 km/h 38 % 0 mm
11:04 26.1 °C 10.7 °C 1012.8 hPa NNE 11.1 km/h 6.1 km/h 38 % 0 mm
11:09 26.1 °C 9.4 °C 1013.1 hPa North 14.8 km/h 6.1 km/h 35 % 0 mm
11:14 26.3 °C 10 °C 1012.8 hPa North 14.8 km/h 10.8 km/h 36 % 0 mm
11:19 26.5 °C 10.2 °C 1012.8 hPa North 13 km/h 8.7 km/h 36 % 0 mm
11:24 26.7 °C 10 °C 1012.8 hPa North 9.3 km/h 5.3 km/h 35 % 0 mm
11:29 27 °C 9.3 °C 1012.8 hPa NNE 11.1 km/h 6.3 km/h 33 % 0 mm
11:34 27.2 °C 9.1 °C 1012.8 hPa North 16.7 km/h 8 km/h 32 % 0 mm
11:39 27.5 °C 8.8 °C 1012.8 hPa NW 13 km/h 12.2 km/h 31 % 0 mm
11:44 27.3 °C 9.1 °C 1012.8 hPa NNW 14.8 km/h 7.1 km/h 32 % 0 mm
11:49 27.4 °C 8.8 °C 1012.4 hPa NNW 13 km/h 5.6 km/h 31 % 0 mm
11:54 27.7 °C 7.6 °C 1012.4 hPa NW 12.9 km/h 7.7 km/h 28 % 0 mm
11:59 28.1 °C 7.3 °C 1012.4 hPa NW 16.7 km/h 11.4 km/h 27 % 0 mm
12:04 27.8 °C 8.2 °C 1012.1 hPa NW 8 km/h 5.1 km/h 29 % 0 mm
12:09 28.3 °C 8.6 °C 1012.1 hPa NW 9.3 km/h 6.8 km/h 29 % 0 mm
12:14 28.5 °C 8.7 °C 1012.1 hPa NW 11.1 km/h 5.5 km/h 29 % 0 mm
12:19 28.6 °C 7.7 °C 1012.1 hPa NW 8 km/h 2.9 km/h 27 % 0 mm
12:24 28.9 °C 8.6 °C 1012.1 hPa NW 13 km/h 8.5 km/h 28 % 0 mm
12:29 29.2 °C 8.8 °C 1012.1 hPa NW 7.4 km/h 6.6 km/h 28 % 0 mm
12:34 28.9 °C 8.6 °C 1012.1 hPa NNW 11.3 km/h 8.4 km/h 28 % 0 mm
12:39 29.1 °C 7.6 °C 1011.7 hPa North 9.3 km/h 5.8 km/h 26 % 0 mm
12:44 29.3 °C 9.4 °C 1011.7 hPa North 13 km/h 4 km/h 29 % 0 mm
12:49 29.3 °C 8.9 °C 1011.7 hPa NNE 16.7 km/h 9.8 km/h 28 % 0 mm
12:54 29.2 °C 9.3 °C 1011.7 hPa NE 11.1 km/h 3.1 km/h 29 % 0 mm
12:59 29.4 °C 8.5 °C 1011.4 hPa NW 11.3 km/h 13.4 km/h 27 % 0 mm
13:04 29.3 °C 7.8 °C 1011.4 hPa NW 14.8 km/h 10.3 km/h 26 % 0 mm
13:09 29.3 °C 8.3 °C 1011.4 hPa NW 5.6 km/h 8 km/h 27 % 0 mm
13:14 29.7 °C 8.7 °C 1011.4 hPa North 18.5 km/h 12.4 km/h 27 % 0 mm
13:19 29.6 °C 8.6 °C 1011.1 hPa NNE 9.3 km/h 1.1 km/h 27 % 0 mm
13:24 30 °C 8.9 °C 1011.1 hPa NW 18.5 km/h 15.1 km/h 27 % 0 mm
13:29 29.7 °C 9.3 °C 1011.1 hPa NW 11.1 km/h 7.4 km/h 28 % 0 mm
13:34 30.2 °C 8.6 °C 1011.1 hPa NW 11.1 km/h 5 km/h 26 % 0 mm
13:39 30.6 °C 8.9 °C 1011.1 hPa NNW 13 km/h 11.3 km/h 26 % 0 mm
13:44 30.7 °C 8.4 °C 1011.1 hPa NW 20.4 km/h 16.1 km/h 25 % 0 mm
13:49 30.4 °C 9.3 °C 1011.1 hPa NNW 20.4 km/h 13.7 km/h 27 % 0 mm
13:54 30.3 °C 9.2 °C 1010.7 hPa NW 18.5 km/h 10.9 km/h 27 % 0 mm
13:59 30.6 °C 9.4 °C 1010.7 hPa NW 14.8 km/h 7.6 km/h 27 % 0 mm
14:04 30.8 °C 9.1 °C 1010.4 hPa NNE 14.8 km/h 6.8 km/h 26 % 0 mm
14:09 30.8 °C 9.1 °C 1010.4 hPa NNE 7.4 km/h 5.1 km/h 26 % 0 mm
14:14 31.1 °C 8.8 °C 1010.4 hPa North 20.4 km/h 8.5 km/h 25 % 0 mm
14:19 31.3 °C 8.3 °C 1010.4 hPa NNW 18.5 km/h 12.7 km/h 24 % 0 mm
14:24 31.2 °C 8.8 °C 1010.4 hPa NW 20.4 km/h 14.6 km/h 25 % 0 mm
14:29 30.9 °C 7.9 °C 1010.4 hPa WNW 18.5 km/h 12.2 km/h 24 % 0 mm
14:34 31.2 °C 8.2 °C 1010.4 hPa NNW 14.8 km/h 11.6 km/h 24 % 0 mm
14:39 31.3 °C 8.3 °C 1010.4 hPa NW 16.7 km/h 8.2 km/h 24 % 0 mm
14:44 31.8 °C 8.1 °C 1010 hPa NNW 11.1 km/h 3.2 km/h 23 % 0 mm
14:49 32.4 °C 7.9 °C 1010 hPa NW 7.4 km/h 5.6 km/h 22 % 0 mm
14:54 32.6 °C 7.4 °C 1010 hPa North 11.3 km/h 11.9 km/h 21 % 0 mm
14:59 32.3 °C 7.2 °C 1010 hPa North 16.7 km/h 10.5 km/h 21 % 0 mm
15:04 32 °C 6.9 °C 1010 hPa NNW 5.6 km/h 4.7 km/h 21 % 0 mm
15:09 32.2 °C 7.1 °C 1009.7 hPa North 16.7 km/h 12.1 km/h 21 % 0 mm
15:14 32.6 °C 6.7 °C 1009.7 hPa NNE 24.1 km/h 7.6 km/h 20 % 0 mm
15:19 32.5 °C 5.9 °C 1009.7 hPa NW 18.5 km/h 7.1 km/h 19 % 0 mm
15:24 32.3 °C 6.5 °C 1009.7 hPa North 20.4 km/h 12.1 km/h 20 % 0 mm
15:29 32.6 °C 6.7 °C 1009.7 hPa NW 14.8 km/h 9.5 km/h 20 % 0 mm
15:34 32.4 °C 7.3 °C 1009.7 hPa NW 16.7 km/h 6.1 km/h 21 % 0 mm
15:39 32.6 °C 6 °C 1009.7 hPa NW 14.5 km/h 11.9 km/h 19 % 0 mm
15:44 32.6 °C 5.9 °C 1009.7 hPa NNW 14.8 km/h 7.4 km/h 19 % 0 mm
15:49 32.5 °C 6.6 °C 1009.4 hPa NW 18.5 km/h 10.8 km/h 20 % 0 mm
15:54 32.9 °C 6.2 °C 1009.4 hPa NW 11.1 km/h 6.8 km/h 19 % 0 mm
15:59 33 °C 7.1 °C 1009.4 hPa NE 14.5 km/h 7.4 km/h 20 % 0 mm
16:04 32.9 °C 7 °C 1009.4 hPa NNW 20.4 km/h 15.3 km/h 20 % 0 mm
16:09 32.6 °C 6.7 °C 1009 hPa North 16.7 km/h 7.9 km/h 20 % 0 mm
16:14 32.8 °C 6.9 °C 1009 hPa North 9.3 km/h 5.1 km/h 20 % 0 mm
16:19 33 °C 7.1 °C 1009 hPa North 24.1 km/h 16.1 km/h 20 % 0 mm
16:24 33.1 °C 6.4 °C 1009 hPa NNE 18.5 km/h 11.1 km/h 19 % 0 mm
16:29 32.8 °C 6.9 °C 1008.7 hPa NNW 11.3 km/h 7.9 km/h 20 % 0 mm
16:34 33.1 °C 5.6 °C 1008.7 hPa NW 16.7 km/h 10.1 km/h 18 % 0 mm
16:39 33.3 °C 5.8 °C 1008.7 hPa WNW 13 km/h 10 km/h 18 % 0 mm
16:44 33.4 °C 5.8 °C 1008.7 hPa NNW 18.5 km/h 10.9 km/h 18 % 0 mm
16:49 33.4 °C 5.8 °C 1008.7 hPa NW 20.4 km/h 13.8 km/h 18 % 0 mm
16:54 33.2 °C 6.4 °C 1008.7 hPa North 18.5 km/h 8.2 km/h 19 % 0 mm
16:59 33.3 °C 5.8 °C 1008.4 hPa NNW 20.4 km/h 6.4 km/h 18 % 0 mm
17:04 33.4 °C 5.9 °C 1008.4 hPa North 14.8 km/h 11.3 km/h 18 % 0 mm
17:09 33.3 °C 6.6 °C 1008.4 hPa NW 18.5 km/h 14 km/h 19 % 0 mm
17:14 33.1 °C 6.4 °C 1008.4 hPa NW 14.8 km/h 8.5 km/h 19 % 0 mm
17:19 33.1 °C 6.4 °C 1008.4 hPa NW 16.7 km/h 9.5 km/h 19 % 0 mm
17:24 33.4 °C 6.6 °C 1008.4 hPa NW 6.4 km/h 7.6 km/h 19 % 0 mm
17:29 33.4 °C 5.9 °C 1008 hPa NW 14.8 km/h 6.4 km/h 18 % 0 mm
17:34 33.4 °C 6.6 °C 1008 hPa NW 18.5 km/h 14.5 km/h 19 % 0 mm
17:39 33.3 °C 6.6 °C 1008 hPa NNW 11.1 km/h 5.5 km/h 19 % 0 mm
17:44 33.5 °C 5.9 °C 1008 hPa NNE 16.1 km/h 9.7 km/h 18 % 0 mm
17:49 33.7 °C 5.3 °C 1008 hPa WNW 16.7 km/h 9.7 km/h 17 % 0 mm
17:54 33.7 °C 5.2 °C 1008 hPa WNW 16.7 km/h 11.7 km/h 17 % 0 mm
17:59 33.7 °C 5.3 °C 1008 hPa NW 13 km/h 8 km/h 17 % 0 mm
18:04 33.7 °C 6.1 °C 1008 hPa NW 9.3 km/h 2.4 km/h 18 % 0 mm
18:09 33.9 °C 6.2 °C 1008 hPa NW 11.1 km/h 8.7 km/h 18 % 0 mm
18:14 33.9 °C 6.2 °C 1007.7 hPa NW 11.3 km/h 5.8 km/h 18 % 0 mm
18:19 33.8 °C 6.2 °C 1007.7 hPa WNW 9.7 km/h 6.1 km/h 18 % 0 mm
18:24 33.8 °C 6.2 °C 1007.7 hPa NNW 13 km/h 9.5 km/h 18 % 0 mm
18:29 33.6 °C 5.2 °C 1007.7 hPa NW 11.1 km/h 5 km/h 17 % 0 mm
18:34 33.4 °C 5.1 °C 1007.7 hPa NW 16.7 km/h 10.9 km/h 17 % 0 mm
18:39 33.6 °C 6 °C 1007.7 hPa NW 9.3 km/h 7.9 km/h 18 % 0 mm
18:44 33.7 °C 5.2 °C 1007.7 hPa NW 12.9 km/h 11.1 km/h 17 % 0 mm
18:49 33.5 °C 5.1 °C 1007.7 hPa NW 8 km/h 6.3 km/h 17 % 0 mm
18:54 33.5 °C 5.9 °C 1007.7 hPa NW 14.5 km/h 11.9 km/h 18 % 0 mm
18:59 33.3 °C 5.7 °C 1007.7 hPa NW 7.4 km/h 4.3 km/h 18 % 0 mm
19:04 33.4 °C 5.8 °C 1007.7 hPa NW 7.4 km/h 4.2 km/h 18 % 0 mm
19:09 33.3 °C 5.8 °C 1007.7 hPa NW 16.7 km/h 10.1 km/h 18 % 0 mm
19:14 33.3 °C 5.7 °C 1007.7 hPa NW 9.3 km/h 5.5 km/h 18 % 0 mm
19:19 33.3 °C 5.7 °C 1007.7 hPa NW 11.1 km/h 5.1 km/h 18 % 0 mm
19:24 33.2 °C 5.7 °C 1007.7 hPa NW 7.4 km/h 5.3 km/h 18 % 0 mm
19:29 33.2 °C 5.7 °C 1007.7 hPa NW 13 km/h 9 km/h 18 % 0 mm
19:34 33.2 °C 4.9 °C 1007.7 hPa NW 9.3 km/h 6 km/h 17 % 0 mm
19:39 33.3 °C 5.7 °C 1007.7 hPa NW 5.6 km/h 2.3 km/h 18 % 0 mm
19:44 33.3 °C 5.8 °C 1007.7 hPa NW 11.3 km/h 6.1 km/h 18 % 0 mm
19:49 33.1 °C 4.7 °C 1007.7 hPa NW 9.3 km/h 6.8 km/h 17 % 0 mm
19:54 32.8 °C 4.6 °C 1007.7 hPa NW 9.3 km/h 6.4 km/h 17 % 0 mm
19:59 32.7 °C 5.2 °C 1007.7 hPa NW 9.3 km/h 4.2 km/h 18 % 0 mm
20:04 32.6 °C 4.3 °C 1007.7 hPa NW 7.4 km/h 5.5 km/h 17 % 0 mm
20:09 32.3 °C 4.2 °C 1007.7 hPa NW 9.3 km/h 7.9 km/h 17 % 0 mm
20:14 32.1 °C 4.8 °C 1007.7 hPa NW 7.4 km/h 6.1 km/h 18 % 0 mm
20:19 31.8 °C 4.5 °C 1008 hPa NW 6.4 km/h 4.2 km/h 18 % 0 mm
20:24 31.3 °C 4.2 °C 1008 hPa NW 5.6 km/h 3.9 km/h 18 % 0 mm
20:29 31.1 °C 4.7 °C 1008 hPa NW 3.7 km/h 3.1 km/h 19 % 0 mm
20:34 30.7 °C 4.4 °C 1008 hPa NW 3.7 km/h 2.7 km/h 19 % 0 mm
20:39 30.3 °C 4.8 °C 1008 hPa NW 3.7 km/h 2.6 km/h 20 % 0 mm
20:44 29.8 °C 5.8 °C 1008 hPa NW 5.6 km/h 2.6 km/h 22 % 0 mm
20:49 29.2 °C 5.9 °C 1008 hPa NW 3.7 km/h 2.6 km/h 23 % 0 mm
20:54 28.6 °C 5.4 °C 1008 hPa NW 5.6 km/h 3.4 km/h 23 % 0 mm
20:59 27.7 °C 8 °C 1008.7 hPa SSW 18.5 km/h 8 km/h 29 % 0 mm
21:04 26.7 °C 8.6 °C 1008.7 hPa South 22.2 km/h 12.9 km/h 32 % 0 mm
21:09 25.9 °C 8.4 °C 1008.7 hPa South 20.4 km/h 13.7 km/h 33 % 0 mm
21:14 25.3 °C 8.3 °C 1008.7 hPa SSW 24.1 km/h 18.8 km/h 34 % 0 mm
21:19 24.9 °C 8.4 °C 1008.7 hPa South 18.5 km/h 12.9 km/h 35 % 0 mm
21:24 24.7 °C 8.6 °C 1008.7 hPa South 22.2 km/h 12.7 km/h 36 % 0 mm
21:29 24.4 °C 8.8 °C 1009 hPa South 7.4 km/h 6 km/h 37 % 0 mm
21:34 24.1 °C 8.5 °C 1009 hPa South 16.7 km/h 7.9 km/h 37 % 0 mm
21:39 23.9 °C 8.3 °C 1009 hPa South 13 km/h 8.4 km/h 37 % 0 mm
21:44 23.7 °C 8.5 °C 1009.4 hPa South 9.3 km/h 7.7 km/h 38 % 0 mm
21:49 23.5 °C 8.3 °C 1009.4 hPa South 7.4 km/h 4.8 km/h 38 % 0 mm
21:54 23.3 °C 8.6 °C 1009.4 hPa South 7.4 km/h 6.8 km/h 39 % 0 mm
21:59 23.2 °C 8.4 °C 1009.7 hPa South 11.1 km/h 4.7 km/h 39 % 0 mm
22:04 23 °C 8.3 °C 1009.7 hPa South 7.4 km/h 7.6 km/h 39 % 0 mm
22:09 22.8 °C 8.4 °C 1009.7 hPa South 6.4 km/h 5.3 km/h 40 % 0 mm
22:14 22.6 °C 8.3 °C 1009.7 hPa South 11.1 km/h 7.2 km/h 40 % 0 mm
22:19 22.4 °C 8.1 °C 1009.7 hPa South 9.3 km/h 6.4 km/h 40 % 0 mm
22:24 22.2 °C 8.3 °C 1009.7 hPa South 14.8 km/h 6.9 km/h 41 % 0 mm
22:29 22.1 °C 8.2 °C 1009.7 hPa South 9.7 km/h 6.6 km/h 41 % 0 mm
22:34 21.9 °C 8.4 °C 1009.7 hPa South 9.3 km/h 10.5 km/h 42 % 0 mm
22:39 21.9 °C 8.4 °C 1009.7 hPa South 13 km/h 6.4 km/h 42 % 0 mm
22:44 21.8 °C 8.3 °C 1009.7 hPa South 13 km/h 7.9 km/h 42 % 0 mm
22:49 21.8 °C 8.7 °C 1009.7 hPa South 13 km/h 6.9 km/h 43 % 0 mm
22:54 21.7 °C 8.6 °C 1009.7 hPa South 9.7 km/h 8.7 km/h 43 % 0 mm
22:59 21.6 °C 8.8 °C 1009.7 hPa South 9.3 km/h 8 km/h 44 % 0 mm
23:04 21.5 °C 8.7 °C 1009.7 hPa South 9.3 km/h 4.3 km/h 44 % 0 mm
23:09 21.3 °C 8.6 °C 1009.7 hPa South 9.3 km/h 8 km/h 44 % 0 mm
23:14 21.3 °C 8.5 °C 1009.7 hPa South 9.3 km/h 6.3 km/h 44 % 0 mm
23:19 21.1 °C 8.7 °C 1009.7 hPa South 9.3 km/h 7.2 km/h 45 % 0 mm
23:24 20.9 °C 8.6 °C 1009.7 hPa South 6.4 km/h 4.2 km/h 45 % 0 mm
23:29 20.8 °C 8.7 °C 1009.7 hPa South 11.1 km/h 8.2 km/h 46 % 0 mm
23:34 20.6 °C 8.6 °C 1009.7 hPa South 9.3 km/h 6.6 km/h 46 % 0 mm
23:39 20.4 °C 8.7 °C 1009.7 hPa South 13 km/h 8.4 km/h 47 % 0 mm
23:44 20.3 °C 8.7 °C 1009.7 hPa South 9.7 km/h 6.9 km/h 47 % 0 mm
23:49 20.2 °C 8.8 °C 1009.7 hPa South 11.1 km/h 8.7 km/h 48 % 0 mm
23:54 20.1 °C 8.8 °C 1009.4 hPa South 9.3 km/h 6.1 km/h 48 % 0 mm
23:59 20 °C 8.7 °C 1009.4 hPa South 9.7 km/h 6.8 km/h 48 % 0 mm
Ararat Weather
Compliments of Weather Underground - 2.25 mb
Click here to send mail.


ABOUT

Live weather data from Ararat, Victoria, Australia, 3377
Data uploaded from Cumulus every 5 minutes to Weather Underground.
This site then downloads the raw data for formatting and display.
Metric and imperial data can be displayed. Graphs and historical data available.
Includes Sun and Moon times and rain image live from BOM.

Check out Ararat Weather on Facebook, Twitter and Google +

Help support ongoing costs by checking out the ads





Follow @AraratWeather